Time;durP1;ratioP1;P1;durP2;ratioP2;P2;SDS_P1;SDS_P2;PMS_P1;PMS_P2;Temp;Humidity;BMP_temperature;BMP_pressure;BME280_temperature;BME280_humidity;BME280_pressure;Samples;Min_cycle;Max_cycle;Signal;HPM_P1;HPM_P2
2022/09/20 00:01:23;;;;;;;12.38;2.10;;;11.10;88.80;;;;;;5031120;28;20034;-48
2022/09/20 00:03:52;;;;;;;14.00;1.55;;;11.10;88.60;;;;;;5030937;28;20056;-50
2022/09/20 00:06:22;;;;;;;11.10;1.40;;;11.20;88.40;;;;;;5030990;28;20026;-49
2022/09/20 00:08:51;;;;;;;10.20;1.85;;;11.20;88.20;;;;;;5029887;28;20032;-51
2022/09/20 00:11:21;;;;;;;6.40;1.30;;;11.20;88.00;;;;;;5021962;28;20509;-52
2022/09/20 00:13:49;;;;;;;9.57;1.83;;;11.10;87.90;;;;;;5012038;28;20416;-53
2022/09/20 00:16:20;;;;;;;6.95;2.05;;;11.10;87.90;;;;;;5029370;28;20167;-51
2022/09/20 00:18:52;;;;;;;5.88;1.17;;;11.10;87.70;;;;;;5013232;28;20029;-48
2022/09/20 00:21:21;;;;;;;5.55;1.27;;;11.10;87.90;;;;;;5030305;28;20025;-53
2022/09/20 00:23:47;;;;;;;6.68;1.30;;;11.00;88.20;;;;;;5028085;28;20104;-52
2022/09/20 00:26:16;;;;;;;9.88;1.52;;;10.90;88.00;;;;;;5029682;28;20034;-51
2022/09/20 00:28:42;;;;;;;8.38;1.38;;;10.90;88.10;;;;;;5036667;28;20103;-52
2022/09/20 00:31:10;;;;;;;9.73;1.42;;;10.90;88.30;;;;;;5050468;28;20024;-48
2022/09/20 00:36:23;;;;;;;7.78;1.50;;;10.90;88.40;;;;;;5050492;28;20365;-52
2022/09/20 00:38:57;;;;;;;6.55;2.75;;;10.90;88.50;;;;;;5031211;28;20116;-50
2022/09/20 00:41:25;;;;;;;7.45;1.42;;;10.80;88.60;;;;;;5030335;28;20095;-49
2022/09/20 00:43:54;;;;;;;8.40;1.20;;;10.70;88.60;;;;;;5030120;28;20056;-52
2022/09/20 00:46:22;;;;;;;4.85;1.27;;;10.70;88.70;;;;;;5048001;28;20053;-50
2022/09/20 00:48:54;;;;;;;7.15;1.30;;;10.70;88.80;;;;;;5049406;28;20119;-50
2022/09/20 00:51:33;;;;;;;6.53;1.35;;;10.70;88.80;;;;;;5049772;28;20024;-49
2022/09/20 00:54:02;;;;;;;10.65;1.30;;;10.60;88.90;;;;;;5029471;28;20358;-50
2022/09/20 00:56:37;;;;;;;8.98;1.48;;;10.60;89.00;;;;;;5029602;28;20090;-49
2022/09/20 00:59:29;;;;;;;7.28;2.03;;;10.50;89.20;;;;;;5012684;28;20029;-49
2022/09/20 01:02:04;;;;;;;6.60;1.00;;;10.50;89.20;;;;;;5029945;28;20827;-53
2022/09/20 01:04:32;;;;;;;6.05;1.40;;;10.40;89.30;;;;;;5029864;28;20036;-52
2022/09/20 01:07:02;;;;;;;7.68;1.55;;;10.40;89.40;;;;;;4994137;28;20028;-52
2022/09/20 01:09:31;;;;;;;5.18;1.00;;;10.30;89.40;;;;;;5029950;28;20049;-49
2022/09/20 01:12:03;;;;;;;4.13;1.27;;;10.30;89.50;;;;;;5029934;28;20108;-48
2022/09/20 01:14:31;;;;;;;5.18;1.10;;;10.30;89.50;;;;;;5012482;28;20022;-50
2022/09/20 01:17:02;;;;;;;6.50;1.20;;;10.20;89.70;;;;;;5029505;28;20399;-49
2022/09/20 01:19:47;;;;;;;9.27;3.40;;;10.20;89.80;;;;;;5029878;28;20025;-48
2022/09/20 01:22:50;;;;;;;6.43;1.48;;;10.20;89.90;;;;;;5028970;28;20025;-52
2022/09/20 01:25:49;;;;;;;6.95;1.48;;;10.10;89.90;;;;;;5027031;28;20034;-49
2022/09/20 01:28:16;;;;;;;7.18;1.45;;;10.10;89.90;;;;;;5029118;28;20053;-49
2022/09/20 01:30:47;;;;;;;6.75;1.38;;;10.00;89.90;;;;;;5012072;28;20037;-49
2022/09/20 01:33:47;;;;;;;6.07;1.63;;;10.00;90.00;;;;;;5009898;28;20022;-51
2022/09/20 01:36:23;;;;;;;6.63;1.48;;;9.90;89.90;;;;;;5004569;28;20050;-50
2022/09/20 01:39:11;;;;;;;3.60;0.95;;;9.90;89.90;;;;;;5026847;28;20037;-53
2022/09/20 01:41:51;;;;;;;11.15;1.63;;;9.90;89.90;;;;;;5012179;28;20409;-49
2022/09/20 01:44:51;;;;;;;4.93;1.00;;;9.90;89.90;;;;;;5012040;28;20354;-50
2022/09/20 01:47:37;;;;;;;;;;;9.80;89.90;;;;;;5012212;28;20041;-52
2022/09/20 01:50:29;;;;;;;6.22;0.90;;;9.80;89.80;;;;;;5027626;28;19909;-52
2022/09/20 01:53:37;;;;;;;4.88;1.30;;;9.70;89.70;;;;;;5029451;28;20022;-52
2022/09/20 01:56:40;;;;;;;5.80;1.27;;;9.60;89.50;;;;;;4985667;28;20041;-50
2022/09/20 01:59:37;;;;;;;11.10;1.92;;;9.50;89.60;;;;;;5012981;28;20025;-51
2022/09/20 02:02:51;;;;;;;5.88;1.15;;;9.50;89.60;;;;;;5016233;28;20037;-49
2022/09/20 02:05:36;;;;;;;6.70;1.23;;;9.40;89.80;;;;;;5030804;28;20071;-49
2022/09/20 02:08:40;;;;;;;8.00;2.00;;;9.40;89.80;;;;;;5032885;28;20037;-49
2022/09/20 02:11:21;;;;;;;8.45;1.40;;;9.40;89.90;;;;;;5015334;28;20060;-50
2022/09/20 02:14:20;;;;;;;5.60;1.75;;;9.40;90.10;;;;;;5032701;28;20041;-48
2022/09/20 02:17:04;;;;;;;13.13;2.38;;;9.40;90.10;;;;;;5033042;28;20454;-48
2022/09/20 02:19:53;;;;;;;9.80;1.83;;;9.40;90.30;;;;;;5031007;28;20033;-50
2022/09/20 02:22:55;;;;;;;12.50;2.33;;;9.60;90.80;;;;;;5032169;28;20046;-50
2022/09/20 02:25:21;;;;;;;14.90;2.75;;;9.80;91.10;;;;;;5032667;28;20399;-57
2022/09/20 02:28:11;;;;;;;10.25;1.80;;;10.20;91.60;;;;;;5032551;28;20105;-64
2022/09/20 02:31:16;;;;;;;8.13;1.77;;;10.40;91.40;;;;;;5033721;28;20029;-66
2022/09/20 02:34:03;;;;;;;11.95;2.30;;;10.40;91.40;;;;;;5052159;28;20058;-63
2022/09/20 02:36:47;;;;;;;11.70;1.92;;;10.50;91.60;;;;;;5030662;28;20040;-64
2022/09/20 02:39:30;;;;;;;14.75;2.13;;;10.50;91.60;;;;;;5032756;28;20029;-63
2022/09/20 02:42:20;;;;;;;11.00;1.75;;;10.50;91.50;;;;;;5015467;28;20029;-62
2022/09/20 02:45:01;;;;;;;14.85;2.20;;;10.50;91.40;;;;;;5032450;28;20029;-61
2022/09/20 02:47:46;;;;;;;10.00;2.47;;;10.50;91.30;;;;;;5032058;28;20060;-59
2022/09/20 02:50:45;;;;;;;9.77;1.27;;;10.50;91.30;;;;;;5031474;28;20043;-55
2022/09/20 02:53:48;;;;;;;8.52;1.85;;;10.60;91.40;;;;;;5032206;28;20037;-55
2022/09/20 02:56:34;;;;;;;9.00;2.35;;;10.60;91.40;;;;;;5014268;28;20040;-57
2022/09/20 02:59:30;;;;;;;10.23;2.00;;;10.50;91.30;;;;;;5014753;28;20021;-50
2022/09/20 03:02:23;;;;;;;11.27;2.05;;;10.60;91.40;;;;;;5032124;28;20029;-58
2022/09/20 03:05:01;;;;;;;8.32;1.85;;;10.60;91.50;;;;;;5030263;28;20051;-55
2022/09/20 03:07:52;;;;;;;5.60;1.55;;;10.60;91.50;;;;;;5032042;28;20064;-51
2022/09/20 03:10:26;;;;;;;6.97;1.90;;;10.60;91.60;;;;;;5031501;28;20461;-51
2022/09/20 03:13:26;;;;;;;10.05;2.67;;;10.60;91.60;;;;;;5031705;28;20044;-51
2022/09/20 03:15:57;;;;;;;9.20;1.95;;;10.70;91.70;;;;;;5031963;28;20100;-55
2022/09/20 03:19:00;;;;;;;6.55;1.83;;;10.70;91.70;;;;;;5011904;28;20065;-54
2022/09/20 03:22:04;;;;;;;8.15;2.00;;;10.70;91.60;;;;;;4994637;28;20042;-56
2022/09/20 03:25:04;;;;;;;6.60;1.83;;;10.60;91.50;;;;;;4968384;28;20477;-54
2022/09/20 03:27:51;;;;;;;7.20;1.55;;;10.60;91.50;;;;;;5011977;28;20060;-54
2022/09/20 03:30:55;;;;;;;11.98;1.60;;;10.60;91.40;;;;;;4994517;28;20041;-53
2022/09/20 03:33:58;;;;;;;8.18;1.40;;;10.60;91.40;;;;;;5014418;28;20137;-53
2022/09/20 03:36:50;;;;;;;8.82;1.67;;;10.60;91.50;;;;;;5027934;28;20033;-54
2022/09/20 03:39:54;;;;;;;10.73;1.85;;;10.60;91.50;;;;;;5003443;28;20112;-53
2022/09/20 03:42:29;;;;;;;7.20;1.55;;;10.60;91.50;;;;;;5014675;28;20036;-55
2022/09/20 03:45:18;;;;;;;12.85;2.20;;;10.50;91.60;;;;;;4997801;28;20075;-53
2022/09/20 03:47:58;;;;;;;6.88;1.60;;;10.50;91.60;;;;;;5028448;28;20046;-52
2022/09/20 03:50:45;;;;;;;8.20;1.95;;;10.60;91.80;;;;;;5024940;28;20064;-52
2022/09/20 03:53:35;;;;;;;14.70;2.10;;;10.60;91.80;;;;;;5021562;28;20022;-50
2022/09/20 03:56:40;;;;;;;9.23;1.52;;;10.60;91.70;;;;;;5007127;28;20130;-54
2022/09/20 03:59:36;;;;;;;6.85;1.30;;;10.50;91.70;;;;;;5023219;28;20033;-52
2022/09/20 04:02:33;;;;;;;9.07;1.35;;;10.50;91.60;;;;;;5027302;28;20034;-51
2022/09/20 04:05:27;;;;;;;5.63;1.65;;;10.50;91.60;;;;;;4996841;28;20033;-52
2022/09/20 04:08:17;;;;;;;7.10;1.27;;;10.60;91.60;;;;;;5029357;28;20018;-52
2022/09/20 04:10:58;;;;;;;8.05;1.63;;;10.60;91.50;;;;;;5028006;28;20037;-50
2022/09/20 04:13:38;;;;;;;8.50;1.52;;;10.60;91.50;;;;;;5028099;28;20031;-53
2022/09/20 04:16:23;;;;;;;6.03;1.13;;;10.60;91.40;;;;;;5027985;28;20029;-52
2022/09/20 04:18:58;;;;;;;8.18;1.27;;;10.60;91.50;;;;;;5026049;28;20036;-49
2022/09/20 04:21:42;;;;;;;4.78;1.95;;;10.60;91.50;;;;;;5029767;28;20053;-52
2022/09/20 04:24:16;;;;;;;10.43;2.42;;;10.60;91.40;;;;;;5019688;28;20041;-48
2022/09/20 04:26:54;;;;;;;5.55;1.00;;;10.60;91.30;;;;;;5012392;28;20041;-53
2022/09/20 04:29:39;;;;;;;4.50;1.27;;;10.60;91.50;;;;;;4996166;28;20030;-52
2022/09/20 04:32:15;;;;;;;3.38;1.13;;;10.60;91.50;;;;;;5012894;28;20029;-51
2022/09/20 04:37:38;;;;;;;4.40;1.13;;;10.60;91.50;;;;;;5029718;28;20044;-52
2022/09/20 04:40:41;;;;;;;3.83;1.33;;;10.60;91.40;;;;;;5029162;28;20512;-54
2022/09/20 04:43:50;;;;;;;3.88;1.17;;;10.60;91.50;;;;;;5013228;28;20382;-50
2022/09/20 04:46:42;;;;;;;4.75;1.10;;;10.60;91.50;;;;;;5029932;28;20038;-50
2022/09/20 04:49:26;;;;;;;5.45;1.20;;;10.60;91.40;;;;;;5028795;28;20435;-48
2022/09/20 04:52:29;;;;;;;4.20;1.00;;;10.50;91.50;;;;;;5024715;28;20043;-50
2022/09/20 04:55:31;;;;;;;5.28;1.17;;;10.50;91.50;;;;;;5027611;28;20402;-50
2022/09/20 04:58:31;;;;;;;4.47;0.50;;;10.40;91.40;;;;;;5026801;28;20090;-52
2022/09/20 05:01:15;;;;;;;4.93;1.20;;;10.50;91.40;;;;;;5031072;28;20319;-53
2022/09/20 05:03:59;;;;;;;6.88;1.10;;;10.40;91.30;;;;;;5028396;28;20021;-51
2022/09/20 05:06:49;;;;;;;4.75;1.13;;;10.40;91.20;;;;;;5027443;28;20079;-51
2022/09/20 05:09:21;;;;;;;5.95;1.83;;;10.40;91.20;;;;;;5029584;28;20029;-50
2022/09/20 05:12:28;;;;;;;5.43;1.10;;;10.30;91.20;;;;;;5028064;28;20512;-51
2022/09/20 05:15:33;;;;;;;3.80;1.80;;;10.30;91.30;;;;;;4991829;28;20468;-48
2022/09/20 05:18:34;;;;;;;5.03;1.83;;;10.30;91.40;;;;;;5028446;28;20454;-52
2022/09/20 05:21:26;;;;;;;3.53;1.02;;;10.30;91.30;;;;;;5028271;28;20566;-50
2022/09/20 05:24:03;;;;;;;4.55;0.88;;;10.30;91.40;;;;;;5033679;28;20037;-52
2022/09/20 05:26:46;;;;;;;7.65;1.15;;;10.30;91.40;;;;;;5043191;28;20501;-50
2022/09/20 05:29:42;;;;;;;3.45;0.68;;;10.40;91.30;;;;;;5026675;28;20036;-50
2022/09/20 05:32:23;;;;;;;4.97;2.30;;;10.30;91.40;;;;;;5026792;28;20025;-52
2022/09/20 05:35:11;;;;;;;7.90;3.92;;;10.30;91.40;;;;;;5027475;28;20025;-48
2022/09/20 05:38:11;;;;;;;9.93;3.58;;;10.30;91.30;;;;;;5008832;28;20054;-50
2022/09/20 05:41:17;;;;;;;3.28;1.50;;;10.30;91.30;;;;;;5001305;28;20049;-52
2022/09/20 05:44:20;;;;;;;6.78;1.38;;;10.20;91.20;;;;;;5019692;28;20026;-49
2022/09/20 05:47:19;;;;;;;7.20;2.00;;;10.10;90.90;;;;;;5028872;28;20160;-50
2022/09/20 05:50:12;;;;;;;6.03;2.17;;;10.10;90.90;;;;;;5029145;28;20040;-52
2022/09/20 05:52:53;;;;;;;4.28;1.60;;;10.00;90.90;;;;;;5028530;28;20108;-50
2022/09/20 05:55:59;;;;;;;6.88;1.67;;;10.00;90.90;;;;;;5029045;28;20018;-55
2022/09/20 05:59:04;;;;;;;7.72;2.25;;;10.10;91.10;;;;;;5010983;28;20036;-50
2022/09/20 06:01:40;;;;;;;7.60;1.70;;;10.20;90.80;;;;;;5026863;28;20032;-50
2022/09/20 06:04:37;;;;;;;9.77;2.15;;;10.20;90.70;;;;;;5008111;28;20030;-48
2022/09/20 06:07:31;;;;;;;10.13;2.10;;;10.10;90.50;;;;;;5030160;28;20100;-49
2022/09/20 06:10:30;;;;;;;6.32;1.42;;;10.00;90.30;;;;;;5038001;28;20030;-48
2022/09/20 06:13:33;;;;;;;8.25;1.83;;;10.10;90.70;;;;;;5030301;28;20115;-49
2022/09/20 06:16:06;;;;;;;6.65;2.53;;;10.20;90.70;;;;;;5023445;28;20033;-49
2022/09/20 06:19:13;;;;;;;5.38;1.52;;;10.30;90.90;;;;;;5007297;28;20267;-51
2022/09/20 06:21:50;;;;;;;9.93;3.22;;;10.40;91.00;;;;;;5027013;28;20032;-51
2022/09/20 06:24:42;;;;;;;9.18;3.53;;;10.60;91.00;;;;;;5026493;28;20497;-52
2022/09/20 06:27:14;;;;;;;8.00;2.95;;;10.70;91.00;;;;;;5027216;28;20045;-51
2022/09/20 06:30:00;;;;;;;7.30;2.38;;;10.90;91.20;;;;;;5027853;28;20041;-49
2022/09/20 06:32:27;;;;;;;4.75;1.50;;;11.00;91.00;;;;;;5001825;28;20065;-51
2022/09/20 06:34:54;;;;;;;2.92;1.55;;;11.20;90.90;;;;;;5025264;28;20453;-48
2022/09/20 06:43:23;;;;;;;7.68;3.40;;;11.50;90.90;;;;;;5019930;28;20259;-52
2022/09/20 06:45:49;;;;;;;8.48;1.50;;;11.50;90.20;;;;;;5010238;28;20115;-50
2022/09/20 06:48:18;;;;;;;5.53;1.50;;;11.50;89.50;;;;;;5013726;28;20031;-47
2022/09/20 06:50:47;;;;;;;4.70;1.35;;;11.50;89.30;;;;;;5001443;28;20350;-51
2022/09/20 06:53:28;;;;;;;6.13;2.28;;;11.40;89.20;;;;;;5018426;28;20044;-48
2022/09/20 06:55:55;;;;;;;5.30;1.58;;;11.40;88.60;;;;;;5034056;28;20048;-49
2022/09/20 06:58:25;;;;;;;5.55;1.40;;;11.30;88.90;;;;;;5031040;28;20026;-53
2022/09/20 07:00:52;;;;;;;;;;;11.30;89.10;;;;;;5012663;28;20029;-47
2022/09/20 07:03:19;;;;;;;12.35;1.90;;;11.30;89.20;;;;;;5006798;28;19919;-47
2022/09/20 07:05:46;;;;;;;8.45;1.40;;;11.30;89.60;;;;;;5030617;28;20061;-51
2022/09/20 07:08:14;;;;;;;10.60;1.95;;;11.40;89.80;;;;;;5030660;28;20433;-47
2022/09/20 07:10:40;;;;;;;4.50;1.27;;;11.60;89.90;;;;;;5007949;28;20427;-48
2022/09/20 07:13:06;;;;;;;6.85;1.45;;;11.80;90.10;;;;;;5040172;28;20092;-47
2022/09/20 07:15:34;;;;;;;5.15;1.33;;;11.90;89.90;;;;;;5031984;28;20033;-47
2022/09/20 07:18:01;;;;;;;4.68;1.15;;;11.90;89.70;;;;;;5030380;28;20057;-47
2022/09/20 07:20:27;;;;;;;5.68;1.15;;;12.00;89.60;;;;;;5037795;28;20025;-47
2022/09/20 07:22:54;;;;;;;9.70;1.30;;;12.10;89.30;;;;;;5017028;28;20021;-50
2022/09/20 07:25:24;;;;;;;11.07;2.03;;;12.10;89.10;;;;;;5035273;28;20454;-50
2022/09/20 07:27:50;;;;;;;4.72;1.63;;;11.90;87.70;;;;;;5012737;28;20029;-59
2022/09/20 07:30:21;;;;;;;9.43;1.65;;;11.90;88.00;;;;;;5023644;28;20072;-51
2022/09/20 07:32:50;;;;;;;10.02;1.80;;;11.90;88.20;;;;;;5030113;28;20121;-51
2022/09/20 07:35:17;;;;;;;9.90;2.92;;;11.90;88.80;;;;;;5028493;28;20031;-50
2022/09/20 07:37:44;;;;;;;7.82;1.63;;;11.90;89.30;;;;;;5030697;28;20370;-58
2022/09/20 07:40:11;;;;;;;12.40;2.15;;;11.90;89.50;;;;;;5022481;28;20025;-59
2022/09/20 07:42:41;;;;;;;6.93;1.83;;;11.90;89.70;;;;;;5025840;28;20153;-61
2022/09/20 07:45:11;;;;;;;11.18;1.60;;;11.80;89.50;;;;;;5030630;28;20029;-58
2022/09/20 07:47:40;;;;;;;8.32;1.42;;;11.80;89.50;;;;;;5024462;28;20136;-53
2022/09/20 07:50:10;;;;;;;8.90;1.38;;;11.70;89.20;;;;;;5034441;28;20056;-51
2022/09/20 07:52:37;;;;;;;7.07;1.40;;;11.90;89.40;;;;;;5028756;28;20034;-48
2022/09/20 07:55:03;;;;;;;7.95;1.23;;;12.00;89.30;;;;;;5027321;28;20029;-51
2022/09/20 07:57:35;;;;;;;7.60;1.40;;;12.40;89.30;;;;;;5022644;28;20052;-52
2022/09/20 08:00:06;;;;;;;4.32;1.23;;;12.60;89.10;;;;;;5006404;28;20125;-49
2022/09/20 08:02:32;;;;;;;3.83;0.73;;;13.10;89.20;;;;;;4989512;28;20439;-48
2022/09/20 08:05:00;;;;;;;6.78;1.98;;;13.30;87.00;;;;;;5027972;28;20029;-48
2022/09/20 08:07:28;;;;;;;5.57;1.20;;;13.30;86.20;;;;;;5030110;28;20350;-52
2022/09/20 08:09:53;;;;;;;7.45;1.83;;;13.30;85.40;;;;;;5028313;28;20101;-55
2022/09/20 08:12:19;;;;;;;8.65;1.88;;;13.00;85.80;;;;;;5029949;28;20116;-56
2022/09/20 08:14:46;;;;;;;8.23;1.30;;;13.00;86.60;;;;;;5029806;28;20045;-57
2022/09/20 08:17:13;;;;;;;4.85;1.60;;;12.80;86.90;;;;;;5011782;28;20339;-58
2022/09/20 08:19:41;;;;;;;3.90;1.33;;;12.70;87.80;;;;;;5010852;28;20029;-59
2022/09/20 08:22:11;;;;;;;8.05;1.45;;;12.70;88.40;;;;;;5029353;28;20457;-59
2022/09/20 08:24:38;;;;;;;13.88;2.28;;;12.70;88.60;;;;;;5029783;28;20052;-59
2022/09/20 08:27:05;;;;;;;9.73;1.50;;;12.70;88.90;;;;;;5012282;28;20056;-55
2022/09/20 08:29:31;;;;;;;10.30;1.88;;;12.50;88.80;;;;;;5029578;28;20792;-55
2022/09/20 08:31:59;;;;;;;7.93;1.42;;;12.40;89.20;;;;;;5029358;28;20048;-56
2022/09/20 08:34:26;;;;;;;7.45;1.20;;;12.40;89.70;;;;;;5028988;28;20067;-56
2022/09/20 08:36:55;;;;;;;7.75;1.70;;;12.40;89.80;;;;;;5002411;28;20044;-54
2022/09/20 08:39:23;;;;;;;7.18;2.05;;;12.40;89.70;;;;;;5026836;28;20029;-55
2022/09/20 08:42:26;;;;;;;7.40;1.30;;;12.40;89.50;;;;;;5029216;28;20125;-55
2022/09/20 08:45:00;;;;;;;8.18;1.80;;;12.40;89.30;;;;;;5029751;28;20033;-55
2022/09/20 08:47:35;;;;;;;7.03;1.48;;;12.50;88.80;;;;;;5029123;28;20584;-53
2022/09/20 08:50:06;;;;;;;5.90;1.27;;;12.60;88.20;;;;;;5010854;28;20044;-53
2022/09/20 08:52:36;;;;;;;5.68;1.00;;;12.50;87.50;;;;;;5011246;28;20429;-52
2022/09/20 08:55:16;;;;;;;5.00;1.40;;;12.60;87.50;;;;;;5030105;28;20025;-52
2022/09/20 08:57:49;;;;;;;6.18;1.27;;;12.70;87.40;;;;;;5026916;28;20072;-49
2022/09/20 09:00:29;;;;;;;7.60;1.17;;;13.00;87.40;;;;;;5028289;28;20017;-53
2022/09/20 09:03:05;;;;;;;8.82;1.13;;;13.30;86.50;;;;;;4988975;28;20030;-48
2022/09/20 09:05:39;;;;;;;5.75;1.67;;;13.50;86.70;;;;;;5012302;28;20025;-47
2022/09/20 09:08:16;;;;;;;10.57;1.60;;;13.80;86.90;;;;;;5019267;28;20454;-47
2022/09/20 09:10:52;;;;;;;10.98;1.30;;;13.90;85.20;;;;;;5017006;28;20037;-46
2022/09/20 09:13:46;;;;;;;7.05;1.15;;;13.90;84.80;;;;;;5029051;28;20040;-51
2022/09/20 09:16:15;;;;;;;6.57;1.50;;;13.70;83.20;;;;;;5016938;28;20048;-47
2022/09/20 09:18:45;;;;;;;5.05;1.50;;;13.60;83.00;;;;;;5026512;28;20195;-46
2022/09/20 09:21:32;;;;;;;4.43;1.15;;;13.50;83.00;;;;;;5026875;28;20075;-47
2022/09/20 09:24:17;;;;;;;4.68;1.05;;;13.40;82.50;;;;;;5028644;28;20030;-45
2022/09/20 09:26:46;;;;;;;4.70;0.98;;;13.10;82.80;;;;;;5011296;28;20029;-50
2022/09/20 09:29:30;;;;;;;7.80;2.10;;;12.90;84.40;;;;;;5028456;28;20029;-51
2022/09/20 09:32:20;;;;;;;8.85;1.90;;;12.90;85.20;;;;;;5026284;28;20111;-52
2022/09/20 09:34:54;;;;;;;4.50;0.80;;;13.00;85.80;;;;;;5020754;28;20025;-51
2022/09/20 09:37:29;;;;;;;5.43;1.38;;;13.10;85.90;;;;;;5027420;28;20505;-50
2022/09/20 09:40:12;;;;;;;6.75;1.17;;;13.20;85.40;;;;;;5025768;28;20052;-48
2022/09/20 09:42:56;;;;;;;5.10;1.10;;;13.40;85.30;;;;;;5009911;28;20401;-51
2022/09/20 09:45:34;;;;;;;5.57;1.08;;;13.50;84.00;;;;;;5033947;28;20032;-51
2022/09/20 09:48:01;;;;;;;4.60;1.15;;;13.80;84.30;;;;;;5006038;28;20045;-50
2022/09/20 09:50:32;;;;;;;3.88;1.33;;;14.00;84.10;;;;;;4996606;28;20380;-52
2022/09/20 09:53:13;;;;;;;7.78;1.65;;;14.40;83.90;;;;;;5007687;28;20037;-50
2022/09/20 09:56:03;;;;;;;5.28;1.65;;;14.40;83.40;;;;;;5005473;28;20383;-47
2022/09/20 09:58:57;;;;;;;6.05;1.42;;;14.40;81.60;;;;;;4988060;28;20045;-46
2022/09/20 10:01:54;;;;;;;4.38;1.38;;;14.60;82.10;;;;;;5004853;28;20034;-49
2022/09/20 10:04:47;;;;;;;7.03;1.73;;;14.90;80.60;;;;;;5003872;28;20022;-47
2022/09/20 10:07:20;;;;;;;8.98;1.65;;;15.10;80.10;;;;;;5020803;28;20034;-45
2022/09/20 10:10:18;;;;;;;9.93;2.17;;;15.20;79.30;;;;;;5008237;28;20060;-48
2022/09/20 10:12:58;;;;;;;5.07;0.98;;;15.30;78.20;;;;;;5004771;28;20049;-47
2022/09/20 10:15:45;;;;;;;4.85;0.90;;;15.30;78.50;;;;;;5007621;28;20030;-45
2022/09/20 10:18:32;;;;;;;7.15;1.70;;;15.00;77.50;;;;;;5007571;28;20029;-46
2022/09/20 10:21:08;;;;;;;2.97;0.98;;;14.80;78.10;;;;;;5008397;28;20093;-45
2022/09/20 10:23:59;;;;;;;7.60;1.25;;;14.80;79.60;;;;;;5011655;28;20113;-47
2022/09/20 10:27:06;;;;;;;6.97;1.55;;;15.00;80.80;;;;;;5011047;28;20060;-47
2022/09/20 10:29:51;;;;;;;6.22;1.30;;;15.30;80.30;;;;;;5008539;28;20033;-46
2022/09/20 10:32:45;;;;;;;6.50;1.33;;;15.40;76.00;;;;;;5010705;28;20060;-45
2022/09/20 10:35:35;;;;;;;7.85;1.55;;;15.80;76.10;;;;;;5011371;28;20091;-44
2022/09/20 10:38:45;;;;;;;7.18;1.60;;;16.20;73.50;;;;;;5010726;28;20038;-45
2022/09/20 10:44:26;;;;;;;7.45;1.90;;;16.40;71.20;;;;;;4971855;28;20379;-47
2022/09/20 10:47:13;;;;;;;7.03;2.08;;;16.00;71.20;;;;;;5001647;28;20091;-46
2022/09/20 10:50:18;;;;;;;7.07;1.10;;;15.80;70.50;;;;;;5004457;28;20044;-50
2022/09/20 10:52:59;;;;;;;4.63;1.10;;;15.80;72.50;;;;;;5006295;28;20041;-44
2022/09/20 10:56:07;;;;;;;9.77;1.65;;;15.60;72.40;;;;;;4992700;28;20018;-45
2022/09/20 10:59:16;;;;;;;6.03;2.30;;;15.40;73.90;;;;;;4999232;28;20038;-45
2022/09/20 11:01:48;;;;;;;6.33;2.07;;;14.90;75.60;;;;;;4996143;28;20034;-63
2022/09/20 11:04:53;;;;;;;6.75;1.85;;;14.40;78.50;;;;;;4991518;28;20022;-59
2022/09/20 11:08:01;;;;;;;10.43;2.30;;;14.00;81.20;;;;;;5015432;28;20441;-58
2022/09/20 11:10:54;;;;;;;8.45;2.42;;;13.70;82.00;;;;;;5001009;28;20026;-53
2022/09/20 11:13:46;;;;;;;3.63;1.05;;;13.60;82.70;;;;;;5009227;28;20195;-52
2022/09/20 11:16:33;;;;;;;9.05;2.08;;;13.70;83.50;;;;;;5020736;28;20021;-51
2022/09/20 11:19:14;;;;;;;7.60;1.73;;;13.70;83.90;;;;;;5002558;28;20085;-50
2022/09/20 11:22:00;;;;;;;7.20;1.33;;;13.70;83.30;;;;;;5011144;28;20321;-52
2022/09/20 11:24:35;;;;;;;5.90;1.60;;;13.60;83.00;;;;;;5010316;28;20030;-48
2022/09/20 11:27:19;;;;;;;5.32;1.05;;;13.60;83.90;;;;;;5010959;28;20034;-52
2022/09/20 11:30:00;;;;;;;6.15;1.20;;;13.90;84.50;;;;;;5010242;28;20403;-49
2022/09/20 11:32:33;;;;;;;5.70;1.38;;;13.90;84.00;;;;;;4993395;28;20026;-50
2022/09/20 11:35:05;;;;;;;10.00;1.15;;;14.20;84.90;;;;;;4982835;28;20030;-50
2022/09/20 11:37:45;;;;;;;8.95;2.17;;;14.40;85.00;;;;;;4993649;28;20030;-47
2022/09/20 11:40:23;;;;;;;10.30;2.03;;;14.70;85.30;;;;;;5010796;28;20338;-45
2022/09/20 11:42:51;;;;;;;14.68;2.00;;;14.90;81.30;;;;;;5010362;28;20052;-49
2022/09/20 11:45:20;;;;;;;10.57;1.77;;;15.00;76.00;;;;;;5008769;28;20053;-46
2022/09/20 11:48:04;;;;;;;7.30;1.63;;;15.20;76.10;;;;;;5028973;28;20124;-44
2022/09/20 11:50:45;;;;;;;8.20;1.92;;;15.50;78.40;;;;;;5028708;28;20065;-45
2022/09/20 11:53:41;;;;;;;7.53;1.30;;;15.60;75.50;;;;;;5029887;28;20355;-48
2022/09/20 11:56:29;;;;;;;12.00;2.40;;;15.90;77.20;;;;;;5030147;28;20342;-51
2022/09/20 11:58:59;;;;;;;10.30;2.88;;;15.90;77.60;;;;;;5013594;28;20035;-46
2022/09/20 12:01:31;;;;;;;9.68;1.95;;;16.30;74.70;;;;;;5026864;28;20044;-47
2022/09/20 12:04:22;;;;;;;7.95;2.22;;;16.40;73.70;;;;;;5026480;28;20045;-45
2022/09/20 12:07:21;;;;;;;16.23;3.30;;;16.20;71.40;;;;;;5029500;28;20518;-45
2022/09/20 12:10:19;;;;;;;12.43;2.53;;;15.60;70.60;;;;;;5028543;28;20175;-46
2022/09/20 12:12:49;;;;;;;6.18;2.13;;;15.20;71.40;;;;;;5027819;28;20037;-46
2022/09/20 12:15:35;;;;;;;8.20;1.70;;;15.00;74.00;;;;;;5012125;28;20047;-46
2022/09/20 12:18:14;;;;;;;7.60;1.83;;;15.00;76.80;;;;;;5022036;28;20039;-46
2022/09/20 12:20:43;;;;;;;6.60;1.20;;;14.90;77.60;;;;;;5028998;28;20437;-50
2022/09/20 12:23:46;;;;;;;9.80;1.95;;;14.80;77.30;;;;;;5012339;28;20022;-46
2022/09/20 12:26:21;;;;;;;12.45;2.25;;;14.50;77.70;;;;;;5029337;28;20052;-45
2022/09/20 12:29:22;;;;;;;11.32;2.35;;;14.40;77.60;;;;;;5027592;28;20026;-46
2022/09/20 12:31:49;;;;;;;9.38;1.63;;;14.20;77.20;;;;;;5028540;28;20044;-49
2022/09/20 12:34:21;;;;;;;8.32;1.75;;;14.20;79.20;;;;;;5011369;28;20051;-45
2022/09/20 12:36:56;;;;;;;10.00;2.15;;;14.20;78.60;;;;;;5029157;28;20102;-44
2022/09/20 12:39:37;;;;;;;9.15;1.75;;;14.10;77.60;;;;;;5011753;28;20111;-44
2022/09/20 12:42:08;;;;;;;8.23;1.50;;;14.20;78.00;;;;;;4994710;28;20045;-45
2022/09/20 12:44:49;;;;;;;4.82;1.35;;;14.50;76.80;;;;;;5026104;28;20075;-46
2022/09/20 12:47:37;;;;;;;8.85;2.13;;;14.80;73.90;;;;;;5009475;28;20128;-46
2022/09/20 12:53:05;;;;;;;8.27;1.73;;;15.10;73.90;;;;;;5008567;28;20044;-45
2022/09/20 12:56:08;;;;;;;11.43;1.67;;;15.20;72.90;;;;;;5029190;28;20405;-45
2022/09/20 12:58:53;;;;;;;10.63;1.50;;;15.30;73.90;;;;;;5005960;28;20511;-47
2022/09/20 13:01:25;;;;;;;8.38;1.75;;;15.30;73.00;;;;;;5029104;28;20025;-46
2022/09/20 13:03:51;;;;;;;14.25;3.03;;;15.30;73.80;;;;;;5028659;28;20454;-46
2022/09/20 13:06:39;;;;;;;5.45;1.58;;;15.40;72.30;;;;;;4994269;28;20029;-47
2022/09/20 13:09:09;;;;;;;9.77;1.65;;;15.50;72.00;;;;;;5026025;28;20128;-49
2022/09/20 13:11:55;;;;;;;9.32;2.60;;;15.50;70.40;;;;;;5004990;28;20450;-45
2022/09/20 13:14:40;;;;;;;6.53;1.58;;;15.60;69.10;;;;;;5017241;28;20068;-46
2022/09/20 13:17:12;;;;;;;6.38;1.35;;;15.70;71.00;;;;;;5013372;28;20044;-45
2022/09/20 13:19:46;;;;;;;10.32;1.70;;;15.80;73.20;;;;;;5005849;28;20029;-44
2022/09/20 13:22:25;;;;;;;8.80;1.98;;;16.00;70.80;;;;;;5024459;28;20034;-44
2022/09/20 13:24:59;;;;;;;8.38;2.20;;;15.90;71.50;;;;;;4984631;28;20038;-45
2022/09/20 13:27:34;;;;;;;7.47;1.55;;;15.90;68.40;;;;;;5011431;28;20052;-45
2022/09/20 13:30:21;;;;;;;6.25;1.95;;;15.90;67.80;;;;;;5004497;28;20450;-45
2022/09/20 13:32:50;;;;;;;9.15;2.25;;;16.00;68.20;;;;;;5013833;28;20033;-43
2022/09/20 13:35:20;;;;;;;7.35;2.22;;;16.00;68.70;;;;;;5019555;28;20037;-44
2022/09/20 13:37:50;;;;;;;8.10;2.13;;;16.00;66.50;;;;;;5001551;28;20385;-45
2022/09/20 13:40:24;;;;;;;6.65;1.30;;;15.90;64.90;;;;;;5017538;28;20068;-44
2022/09/20 13:42:58;;;;;;;5.63;1.00;;;15.90;65.20;;;;;;5009996;28;20029;-45
2022/09/20 13:45:25;;;;;;;18.15;3.38;;;15.80;66.20;;;;;;5019509;28;20065;-45
2022/09/20 13:47:56;;;;;;;13.25;2.45;;;15.70;66.60;;;;;;5017903;28;20049;-44
2022/09/20 13:50:41;;;;;;;5.97;1.55;;;15.80;64.50;;;;;;5009235;28;20100;-49
2022/09/20 13:53:17;;;;;;;9.30;1.92;;;15.90;62.70;;;;;;5025414;28;20462;-45
2022/09/20 13:55:45;;;;;;;8.57;1.30;;;15.90;63.30;;;;;;4996555;28;20458;-46
2022/09/20 13:58:33;;;;;;;9.80;1.83;;;15.80;65.10;;;;;;5006546;28;20117;-46
2022/09/20 14:01:08;;;;;;;7.40;1.65;;;15.70;62.90;;;;;;5033237;28;20049;-45
2022/09/20 14:03:35;;;;;;;5.88;0.93;;;15.70;63.80;;;;;;5032058;28;20052;-47
2022/09/20 14:06:11;;;;;;;8.30;1.92;;;15.70;63.40;;;;;;5030298;28;20132;-44
2022/09/20 14:08:56;;;;;;;8.40;1.40;;;15.70;63.20;;;;;;5014127;28;20021;-48
2022/09/20 14:11:29;;;;;;;8.20;1.85;;;15.80;64.20;;;;;;5032974;28;20343;-47
2022/09/20 14:14:02;;;;;;;6.32;1.25;;;15.70;62.50;;;;;;5027622;28;20111;-48
2022/09/20 14:16:40;;;;;;;8.27;2.38;;;15.80;64.30;;;;;;5014760;28;20360;-45